Brookdale, New Jersey
Current Conditions -  °F | °C
As of 2:53 AM on Saturday 25 Oct 2014 (Local Time) from KCDW Reporting Station
Clear Clear  
Wind Chill: 47°   Ceiling: Unl
Heat Index: 47°   Visibility: 10mi
Dew Point: 37°   Wind: 0mph
Humidity: 68%   Direction: NA
Pressure: 29.88"   Gusts: NA
Location:  40.8099°N, 74.187°W
Report Text: KCDW 250653Z 00000KT 10SM CLR 08/03 A2988 RMK AO2 SLP123 T00830028
Loading
Personal Weather Stations






























Interactive Weather Map
Tropical Storm Tracking
New forecast layout! Learn more

10-Day Weather Forecast

Advertisements
Track Severe Weather on mobile